createdAt,value
2019-05-20T00:00:39.493Z,74.50
2019-05-20T00:03:07.999Z,65.50
2019-05-20T00:05:36.526Z,83.70
2019-05-20T00:08:04.911Z,81.33
2019-05-20T00:10:33.356Z,88.62
2019-05-20T00:13:01.781Z,81.87
2019-05-20T00:15:30.294Z,87.93
2019-05-20T00:17:58.719Z,91.07
2019-05-20T00:20:27.224Z,89.00
2019-05-20T00:22:55.631Z,307.13
2019-05-20T00:25:24.050Z,453.47
2019-05-20T00:27:52.469Z,129.03
2019-05-20T00:30:21.043Z,89.80
2019-05-20T00:32:49.462Z,87.08
2019-05-20T00:35:17.885Z,86.33
2019-05-20T00:37:46.325Z,97.43
2019-05-20T00:40:15.885Z,209.15
2019-05-20T00:42:44.319Z,241.20
2019-05-20T00:45:13.390Z,122.00
2019-05-20T00:47:41.815Z,156.47
2019-05-20T00:50:10.974Z,170.80
2019-05-20T00:52:39.495Z,139.87
2019-05-20T00:55:10.034Z,132.03
2019-05-20T00:57:38.437Z,133.43
2019-05-20T01:00:07.605Z,117.97
2019-05-20T01:02:36.038Z,226.33
2019-05-20T01:05:04.926Z,143.07
2019-05-20T01:07:33.421Z,289.47
2019-05-20T01:10:01.929Z,536.80
2019-05-20T01:12:30.324Z,98.07
2019-05-20T01:14:59.013Z,114.97
2019-05-20T01:17:27.411Z,179.37
2019-05-20T01:19:55.832Z,332.50
2019-05-20T01:22:24.339Z,245.35
2019-05-20T01:24:52.785Z,143.97
2019-05-20T01:27:21.186Z,235.57
2019-05-20T01:29:49.602Z,430.50
2019-05-20T01:32:18.049Z,249.50
2019-05-20T01:34:55.775Z,413.10
2019-05-20T01:37:24.244Z,200.63
2019-05-20T01:39:52.692Z,145.80
2019-05-20T01:42:21.136Z,190.23
2019-05-20T01:44:49.567Z,207.20
2019-05-20T01:47:17.995Z,493.53
2019-05-20T01:49:46.410Z,143.70
2019-05-20T01:52:14.849Z,269.10
2019-05-20T01:54:43.269Z,290.40
2019-05-20T01:57:11.705Z,267.07
2019-05-20T01:59:40.170Z,332.63
2019-05-20T02:02:08.573Z,393.13
2019-05-20T02:04:36.996Z,142.90
2019-05-20T02:07:05.434Z,160.20
2019-05-20T02:09:33.847Z,142.73
2019-05-20T02:12:02.282Z,330.33
2019-05-20T02:14:41.090Z,165.37
2019-05-20T02:17:09.712Z,198.47
2019-05-20T02:19:38.149Z,260.10
2019-05-20T02:22:06.657Z,251.47
2019-05-20T02:24:35.162Z,152.07
2019-05-20T02:27:03.605Z,250.40
2019-05-20T02:29:32.037Z,247.60
2019-05-20T02:32:00.462Z,148.67
2019-05-20T02:34:28.940Z,164.70
2019-05-20T02:36:57.463Z,387.40
2019-05-20T02:39:26.786Z,245.77
2019-05-20T02:41:55.414Z,180.37
2019-05-20T02:44:23.840Z,175.77
2019-05-20T02:46:52.276Z,178.40
2019-05-20T02:49:20.752Z,321.70
2019-05-20T02:51:49.273Z,149.17
2019-05-20T02:54:17.771Z,197.33
2019-05-20T02:56:46.782Z,181.60
2019-05-20T02:59:15.212Z,161.50
2019-05-20T03:01:43.794Z,245.23
2019-05-20T03:04:13.176Z,318.70
2019-05-20T03:06:41.670Z,212.57
2019-05-20T03:09:12.271Z,455.17
2019-05-20T03:11:40.335Z,502.47
2019-05-20T03:14:08.748Z,247.40
2019-05-20T03:16:37.170Z,255.60
2019-05-20T03:19:05.644Z,192.63
2019-05-20T03:21:34.057Z,182.77
2019-05-20T03:24:02.475Z,214.47
2019-05-20T03:26:30.986Z,231.68
2019-05-20T03:28:59.445Z,622.37
2019-05-20T03:31:27.877Z,673.37
2019-05-20T03:33:56.290Z,471.57
2019-05-20T03:36:24.710Z,293.23
2019-05-20T03:38:53.175Z,728.90
2019-05-20T03:41:21.605Z,260.73
2019-05-20T03:43:50.029Z,323.50
2019-05-20T03:46:18.488Z,291.63
2019-05-20T03:48:47.323Z,673.28
2019-05-20T03:51:15.741Z,249.57
2019-05-20T03:53:44.218Z,634.97
2019-05-20T03:56:12.665Z,266.17
2019-05-20T03:58:41.141Z,363.60
2019-05-20T04:01:09.583Z,246.13
2019-05-20T04:03:38.111Z,396.20
2019-05-20T04:06:06.545Z,562.03
2019-05-20T04:08:34.976Z,376.63
2019-05-20T04:11:03.438Z,688.50
2019-05-20T04:13:34.707Z,331.37
2019-05-20T04:16:02.046Z,360.47
2019-05-20T04:18:30.544Z,463.60
2019-05-20T04:20:58.961Z,471.47
2019-05-20T04:23:27.398Z,286.83
2019-05-20T04:25:55.840Z,278.20
2019-05-20T04:28:24.305Z,470.57
2019-05-20T04:30:52.834Z,609.98
2019-05-20T04:33:21.298Z,447.33
2019-05-20T04:35:50.147Z,911.20
2019-05-20T04:38:18.752Z,294.93
2019-05-20T04:57:19.035Z,654.73
2019-05-20T04:59:47.972Z,1171.63
2019-05-20T05:02:16.402Z,470.47
2019-05-20T05:04:44.841Z,863.63
2019-05-20T05:07:13.283Z,394.83
2019-05-20T05:09:41.773Z,461.77
2019-05-20T05:12:10.242Z,956.93
2019-05-20T05:14:38.695Z,402.30
2019-05-20T05:17:07.317Z,324.50
2019-05-20T05:19:35.728Z,352.73
2019-05-20T05:22:04.262Z,487.83
2019-05-20T05:24:32.765Z,459.83
2019-05-20T05:27:01.344Z,602.47
2019-05-20T05:29:29.856Z,432.70
2019-05-20T05:31:58.280Z,508.27
2019-05-20T05:34:26.736Z,465.93
2019-05-20T05:36:55.244Z,487.80
2019-05-20T05:39:23.707Z,329.82
2019-05-20T05:41:52.140Z,411.45
2019-05-20T05:44:20.562Z,352.07
2019-05-20T05:46:49.113Z,395.47
2019-05-20T05:49:18.240Z,316.30
2019-05-20T05:51:46.683Z,580.67
2019-05-20T05:54:15.155Z,297.43
2019-05-20T05:56:43.570Z,614.60
2019-05-20T05:59:12.025Z,324.27
2019-05-20T06:01:40.595Z,720.93
2019-05-20T06:04:09.203Z,599.47
2019-05-20T06:06:37.648Z,313.70
2019-05-20T06:09:07.160Z,919.53
2019-05-20T06:11:35.574Z,471.97
2019-05-20T06:14:04.110Z,852.50
2019-05-20T06:16:36.650Z,429.27
2019-05-20T06:19:02.795Z,927.40
2019-05-20T06:21:31.242Z,845.77
2019-05-20T06:23:59.743Z,907.47
2019-05-20T06:26:28.160Z,583.17
2019-05-20T06:28:56.563Z,456.57
2019-05-20T06:31:25.083Z,303.40
2019-05-20T06:33:53.504Z,373.73
2019-05-20T06:36:27.000Z,369.80
2019-05-20T06:38:53.950Z,282.13
2019-05-20T06:41:22.451Z,342.37
2019-05-20T06:43:50.892Z,401.67
2019-05-20T06:46:19.331Z,218.50
2019-05-20T06:48:47.749Z,206.00
2019-05-20T06:51:16.160Z,318.80
2019-05-20T06:53:44.598Z,515.77
2019-05-20T06:56:13.051Z,251.53
2019-05-20T06:58:41.471Z,379.27
2019-05-20T07:01:09.912Z,203.17
2019-05-20T07:03:38.322Z,307.17
2019-05-20T07:06:06.761Z,187.13
2019-05-20T07:08:35.185Z,303.50
2019-05-20T07:11:03.609Z,472.13
2019-05-20T07:13:32.025Z,265.83
2019-05-20T07:16:00.435Z,315.63
2019-05-20T07:18:28.861Z,228.13
2019-05-20T07:20:57.293Z,308.50
2019-05-20T07:23:25.725Z,198.27
2019-05-20T07:25:54.151Z,366.63
2019-05-20T07:28:23.152Z,212.50
2019-05-20T07:30:51.543Z,269.40
2019-05-20T07:33:19.983Z,199.77
2019-05-20T07:35:48.412Z,265.77
2019-05-20T07:38:16.842Z,218.37
2019-05-20T07:40:45.269Z,442.43
2019-05-20T07:43:13.689Z,359.03
2019-05-20T07:45:42.454Z,232.57
2019-05-20T07:48:11.208Z,317.37
2019-05-20T07:50:41.288Z,302.53
2019-05-20T07:53:11.425Z,382.37
2019-05-20T07:55:42.893Z,489.30
2019-05-20T07:58:13.068Z,376.93
2019-05-20T08:00:41.770Z,400.47
2019-05-20T08:03:10.205Z,312.27
2019-05-20T08:05:38.673Z,384.57
2019-05-20T08:08:07.112Z,449.40
2019-05-20T08:10:35.634Z,255.93
2019-05-20T08:13:04.135Z,245.67
2019-05-20T08:15:32.539Z,170.70
2019-05-20T08:18:00.945Z,212.57
2019-05-20T08:20:29.419Z,216.23
2019-05-20T08:22:57.861Z,165.20
2019-05-20T08:25:26.282Z,196.87
2019-05-20T08:27:54.730Z,171.33
2019-05-20T08:30:35.159Z,194.57
2019-05-20T08:33:04.043Z,168.67
2019-05-20T08:35:32.563Z,142.77
2019-05-20T08:38:01.081Z,121.47
2019-05-20T08:40:29.481Z,134.67
2019-05-20T08:42:57.912Z,149.97
2019-05-20T08:45:26.328Z,161.77
2019-05-20T08:47:54.784Z,173.73
2019-05-20T08:50:23.208Z,154.97
2019-05-20T08:52:51.641Z,147.07
2019-05-20T08:55:20.047Z,136.57
2019-05-20T08:57:48.539Z,144.97
2019-05-20T09:00:23.702Z,152.73
2019-05-20T09:02:52.164Z,130.03
2019-05-20T09:05:20.621Z,142.00
2019-05-20T09:08:02.081Z,140.97
2019-05-20T09:10:19.570Z,124.23
2019-05-20T09:12:47.997Z,122.50
2019-05-20T09:15:17.974Z,187.03
2019-05-20T09:17:46.482Z,112.77
2019-05-20T09:20:15.326Z,127.93
2019-05-20T09:22:43.763Z,112.90
2019-05-20T09:25:12.790Z,145.27
2019-05-20T09:27:41.396Z,100.40
2019-05-20T09:30:10.461Z,97.03
2019-05-20T09:32:42.848Z,101.60
2019-05-20T09:35:10.104Z,102.90
2019-05-20T09:37:38.530Z,100.90
2019-05-20T09:40:07.586Z,86.50
2019-05-20T09:42:36.010Z,82.33
2019-05-20T09:45:05.612Z,85.63
2019-05-20T09:47:34.027Z,76.37
2019-05-20T09:52:48.583Z,75.30
2019-05-20T09:55:17.058Z,76.23
2019-05-20T09:57:45.489Z,71.13
2019-05-20T10:00:14.032Z,72.67
2019-05-20T10:02:42.491Z,62.17
2019-05-20T10:05:11.017Z,68.80
2019-05-20T10:07:39.447Z,71.27
2019-05-20T10:10:07.991Z,73.90
2019-05-20T10:12:45.865Z,74.23
2019-05-20T10:15:07.743Z,74.73
2019-05-20T10:17:36.260Z,67.57
2019-05-20T10:20:06.664Z,65.40
2019-05-20T10:22:35.270Z,82.60
2019-05-20T10:25:05.276Z,79.40
2019-05-20T10:27:33.685Z,87.67
2019-05-20T10:30:02.194Z,89.30
2019-05-20T10:32:30.696Z,89.23
2019-05-20T10:34:59.151Z,88.67
2019-05-20T10:37:27.575Z,94.37
2019-05-20T10:39:55.987Z,93.33
2019-05-20T10:42:24.458Z,105.83
2019-05-20T10:44:52.946Z,83.07
2019-05-20T10:47:21.337Z,82.53
2019-05-20T10:49:50.039Z,85.13
2019-05-20T10:52:18.553Z,74.20
2019-05-20T10:54:46.949Z,75.13
2019-05-20T10:57:15.384Z,66.43
2019-05-20T10:59:43.837Z,70.43
2019-05-20T11:02:12.273Z,70.73
2019-05-20T11:04:40.681Z,58.77
2019-05-20T11:07:09.108Z,64.87
2019-05-20T11:09:37.504Z,60.10
2019-05-20T11:12:05.926Z,65.50
2019-05-20T11:14:35.005Z,58.97
2019-05-20T11:17:03.439Z,68.43
2019-05-20T11:19:31.905Z,59.83
2019-05-20T11:22:00.357Z,59.30
2019-05-20T11:24:28.762Z,62.90
2019-05-20T11:26:57.240Z,55.90
2019-05-20T11:29:25.640Z,54.33
2019-05-20T11:31:54.073Z,57.07
2019-05-20T11:34:22.482Z,54.80
2019-05-20T11:36:50.905Z,58.57
2019-05-20T11:39:32.488Z,52.37
2019-05-20T11:41:54.284Z,62.40
2019-05-20T11:44:19.618Z,64.67
2019-05-20T11:46:48.045Z,62.53
2019-05-20T11:49:16.501Z,56.83
2019-05-20T11:51:44.929Z,60.67
2019-05-20T11:54:13.348Z,53.70
2019-05-20T11:56:41.795Z,55.27
2019-05-20T11:59:10.207Z,57.03
2019-05-20T12:01:38.621Z,65.27
2019-05-20T12:04:07.097Z,60.87
2019-05-20T12:06:35.499Z,63.53
2019-05-20T12:09:05.689Z,65.13
2019-05-20T12:11:34.127Z,81.03
2019-05-20T12:14:02.563Z,75.87
2019-05-20T12:16:30.952Z,75.50
2019-05-20T12:18:59.450Z,72.07
2019-05-20T12:21:27.884Z,77.93
2019-05-20T12:23:56.298Z,76.43
2019-05-20T12:26:24.833Z,76.00
2019-05-20T12:28:53.296Z,86.60
2019-05-20T12:31:22.736Z,71.90
2019-05-20T12:33:51.176Z,73.37
2019-05-20T12:36:19.622Z,80.47
2019-05-20T12:38:48.068Z,70.57
2019-05-20T12:41:16.481Z,71.60
2019-05-20T12:43:45.336Z,71.00
2019-05-20T12:46:13.860Z,70.23
2019-05-20T12:48:42.273Z,73.43
2019-05-20T12:51:14.354Z,81.03
2019-05-20T12:53:41.018Z,76.30
2019-05-20T12:56:09.471Z,81.37
2019-05-20T12:58:37.920Z,79.73
2019-05-20T13:01:06.331Z,82.23
2019-05-20T13:03:34.757Z,78.37
2019-05-20T13:06:03.154Z,82.47
2019-05-20T13:08:31.611Z,78.10
2019-05-20T13:11:00.029Z,85.03
2019-05-20T13:13:28.470Z,77.50
2019-05-20T13:15:56.904Z,79.10
2019-05-20T13:18:25.426Z,91.53
2019-05-20T13:20:53.832Z,75.77
2019-05-20T13:23:22.274Z,85.30
2019-05-20T13:25:50.666Z,80.30
2019-05-20T13:28:19.101Z,83.23
2019-05-20T13:30:47.538Z,83.90
2019-05-20T13:33:15.942Z,77.10
2019-05-20T13:35:44.536Z,76.27
2019-05-20T13:38:12.984Z,87.27
2019-05-20T13:40:46.335Z,79.33
2019-05-20T13:43:11.655Z,76.10
2019-05-20T13:45:40.083Z,72.00
2019-05-20T13:48:08.622Z,77.60
2019-05-20T13:50:37.065Z,68.67
2019-05-20T13:53:05.497Z,71.50
2019-05-20T13:55:33.911Z,72.43
2019-05-20T13:58:02.423Z,73.80
2019-05-20T14:00:30.843Z,68.57
2019-05-20T14:02:59.282Z,72.13
2019-05-20T14:05:27.783Z,68.23
2019-05-20T14:07:56.202Z,79.37
2019-05-20T14:10:24.656Z,77.73
2019-05-20T14:12:53.086Z,66.93
2019-05-20T14:15:21.517Z,69.90
2019-05-20T14:17:49.967Z,69.60
2019-05-20T14:20:18.507Z,75.57
2019-05-20T14:22:46.990Z,78.27
2019-05-20T14:25:15.615Z,87.30
2019-05-20T14:27:44.017Z,75.50
2019-05-20T14:30:12.589Z,79.43
2019-05-20T14:32:41.028Z,85.37
2019-05-20T14:35:09.669Z,79.87
2019-05-20T14:37:38.092Z,76.20
2019-05-20T14:40:07.370Z,85.43
2019-05-20T14:42:35.862Z,79.10
2019-05-20T14:45:05.266Z,82.63
2019-05-20T14:47:33.675Z,76.63
2019-05-20T14:50:02.101Z,74.13
2019-05-20T14:52:30.537Z,79.97
2019-05-20T14:54:58.938Z,76.40
2019-05-20T14:57:27.353Z,85.10
2019-05-20T14:59:55.779Z,77.67
2019-05-20T15:02:24.433Z,78.10
2019-05-20T15:04:52.892Z,85.70
2019-05-20T15:07:30.179Z,74.80
2019-05-20T15:09:51.526Z,81.43
2019-05-20T15:12:19.943Z,80.77
2019-05-20T15:14:48.663Z,81.23
2019-05-20T15:17:17.051Z,89.77
2019-05-20T15:19:45.494Z,85.37
2019-05-20T15:22:13.964Z,78.70
2019-05-20T15:24:42.345Z,86.10
2019-05-20T15:27:10.765Z,79.40
2019-05-20T15:29:39.228Z,91.43
2019-05-20T15:32:07.646Z,76.97
2019-05-20T15:34:36.074Z,84.87
2019-05-20T15:37:04.543Z,73.23
2019-05-20T15:39:33.024Z,86.10
2019-05-20T15:42:01.485Z,75.60
2019-05-20T15:44:29.897Z,84.30
2019-05-20T15:46:58.303Z,82.97
2019-05-20T15:49:26.997Z,193.70
2019-05-20T15:51:55.432Z,75.73
2019-05-20T15:54:23.874Z,79.60
2019-05-20T15:56:52.309Z,74.67
2019-05-20T15:59:20.731Z,80.17
2019-05-20T16:01:49.190Z,80.67
2019-05-20T16:04:18.626Z,70.13
2019-05-20T16:06:47.130Z,85.43
2019-05-20T16:09:17.235Z,77.97
2019-05-20T16:11:45.999Z,71.60
2019-05-20T16:14:14.672Z,72.73
2019-05-20T16:16:43.090Z,76.53
2019-05-20T16:19:11.513Z,72.70
2019-05-20T16:21:39.967Z,77.80
2019-05-20T16:24:08.547Z,83.27
2019-05-20T16:26:37.168Z,79.03
2019-05-20T16:29:05.773Z,86.83
2019-05-20T16:31:34.256Z,81.00
2019-05-20T16:34:02.705Z,84.20
2019-05-20T16:36:31.188Z,85.47
2019-05-20T16:38:59.754Z,79.67
2019-05-20T16:41:28.286Z,82.73
2019-05-20T16:43:56.787Z,80.93
2019-05-20T16:46:25.243Z,85.33
2019-05-20T16:48:53.662Z,90.40
2019-05-20T16:51:22.649Z,77.77
2019-05-20T16:53:51.108Z,71.43
2019-05-20T16:56:19.517Z,77.60
2019-05-20T16:58:47.967Z,77.53
2019-05-20T17:01:16.398Z,75.07
2019-05-20T17:03:45.185Z,81.00
2019-05-20T17:06:13.642Z,77.80
2019-05-20T17:08:42.062Z,76.73
2019-05-20T17:11:10.517Z,68.93
2019-05-20T17:13:38.922Z,75.47
2019-05-20T17:16:07.355Z,75.03
2019-05-20T17:18:35.771Z,75.03
2019-05-20T17:21:05.779Z,70.83
2019-05-20T17:23:34.143Z,67.73
2019-05-20T17:26:02.630Z,63.77
2019-05-20T17:28:31.076Z,72.67
2019-05-20T17:30:59.484Z,67.53
2019-05-20T17:33:27.919Z,72.13
2019-05-20T17:35:56.384Z,75.57
2019-05-20T17:38:24.877Z,68.53
2019-05-20T17:40:53.343Z,61.83
2019-05-20T17:43:21.760Z,73.43
2019-05-20T17:45:50.197Z,64.90
2019-05-20T17:48:18.624Z,67.73
2019-05-20T17:50:47.036Z,62.43
2019-05-20T17:53:17.848Z,58.57
2019-05-20T17:55:45.579Z,66.57
2019-05-20T17:58:14.033Z,59.10
2019-05-20T18:00:42.509Z,59.83
2019-05-20T18:03:10.904Z,60.30
2019-05-20T18:05:39.311Z,66.77
2019-05-20T18:08:07.757Z,59.60
2019-05-20T18:10:36.157Z,62.57
2019-05-20T18:13:04.751Z,64.60
2019-05-20T18:15:33.215Z,59.77
2019-05-20T18:18:01.787Z,66.53
2019-05-20T18:20:30.204Z,64.77
2019-05-20T18:22:58.680Z,62.90
2019-05-20T18:25:27.110Z,56.53
2019-05-20T18:27:55.543Z,57.37
2019-05-20T18:30:24.316Z,61.30
2019-05-20T18:32:52.767Z,64.43
2019-05-20T18:35:21.245Z,59.83
2019-05-20T18:37:49.650Z,61.63
2019-05-20T18:40:18.427Z,67.33
2019-05-20T18:42:46.886Z,59.33
2019-05-20T18:45:15.550Z,67.63
2019-05-20T18:47:44.038Z,59.63
2019-05-20T18:50:13.011Z,63.20
2019-05-20T18:52:41.446Z,65.07
2019-05-20T18:55:10.000Z,61.10
2019-05-20T18:57:38.427Z,62.67
2019-05-20T19:00:09.454Z,60.50
2019-05-20T19:02:37.869Z,60.23
2019-05-20T19:05:07.884Z,60.43
2019-05-20T19:07:36.296Z,58.07
2019-05-20T19:10:06.161Z,61.83
2019-05-20T19:12:34.654Z,62.83
2019-05-20T19:15:03.059Z,64.17
2019-05-20T19:17:31.754Z,57.00
2019-05-20T19:20:00.227Z,60.53
2019-05-20T19:22:28.711Z,64.47
2019-05-20T19:24:57.164Z,60.03
2019-05-20T19:27:25.556Z,72.87
2019-05-20T19:29:53.987Z,68.27
2019-05-20T19:32:22.465Z,61.50
2019-05-20T19:34:50.891Z,62.60
2019-05-20T19:37:19.358Z,59.23
2019-05-20T19:39:47.773Z,64.60
2019-05-20T19:42:16.207Z,60.63
2019-05-20T19:44:44.623Z,61.80
2019-05-20T19:47:13.200Z,54.03
2019-05-20T19:49:42.546Z,58.17
2019-05-20T19:52:11.241Z,57.53
2019-05-20T19:54:39.806Z,60.27
2019-05-20T19:57:08.305Z,55.50
2019-05-20T19:59:36.712Z,56.30
2019-05-20T20:02:16.404Z,55.67
2019-05-20T20:04:35.430Z,53.43
2019-05-20T20:07:04.100Z,60.90
2019-05-20T20:09:32.571Z,68.60
2019-05-20T20:12:00.987Z,64.63
2019-05-20T20:14:29.397Z,70.40
2019-05-20T20:16:58.030Z,60.57
2019-05-20T20:19:26.732Z,65.50
2019-05-20T20:21:55.204Z,66.67
2019-05-20T20:24:23.773Z,65.37
2019-05-20T20:26:52.322Z,71.13
2019-05-20T20:29:20.730Z,69.60
2019-05-20T20:31:49.149Z,67.53
2019-05-20T20:34:17.646Z,69.00
2019-05-20T20:36:46.090Z,67.63
2019-05-20T20:39:14.662Z,73.80
2019-05-20T20:41:43.171Z,68.37
2019-05-20T20:44:11.701Z,74.70
2019-05-20T20:46:40.791Z,68.40
2019-05-20T20:49:09.165Z,73.13
2019-05-20T20:51:37.673Z,73.37
2019-05-20T20:54:06.223Z,75.40
2019-05-20T20:56:34.713Z,68.23
2019-05-20T20:59:03.202Z,67.17
2019-05-20T21:01:31.631Z,79.20
2019-05-20T21:04:00.242Z,68.40
2019-05-20T21:06:28.668Z,72.27
2019-05-20T21:08:57.090Z,70.03
2019-05-20T21:11:25.584Z,67.90
2019-05-20T21:13:54.059Z,79.43
2019-05-20T21:16:22.488Z,81.20
2019-05-20T21:18:50.908Z,72.17
2019-05-20T21:21:19.399Z,78.90
2019-05-20T21:23:47.843Z,85.10
2019-05-20T21:26:16.252Z,70.60
2019-05-20T21:28:44.706Z,70.80
2019-05-20T21:31:13.157Z,77.50
2019-05-20T21:33:41.568Z,79.00
2019-05-20T21:36:09.991Z,91.90
2019-05-20T21:38:38.407Z,82.73
2019-05-20T21:41:07.090Z,87.60
2019-05-20T21:43:35.505Z,96.73
2019-05-20T21:46:03.905Z,85.53
2019-05-20T21:48:32.441Z,96.33
2019-05-20T21:51:00.843Z,88.93
2019-05-20T21:53:29.272Z,92.20
2019-05-20T21:55:57.702Z,89.23
2019-05-20T21:58:26.108Z,97.50
2019-05-20T22:00:56.414Z,101.83
2019-05-20T22:03:25.433Z,107.60
2019-05-20T22:05:54.097Z,115.27
2019-05-20T22:08:22.585Z,121.20
2019-05-20T22:10:51.077Z,116.37
2019-05-20T22:13:19.482Z,108.23
2019-05-20T22:15:47.915Z,118.00
2019-05-20T22:18:16.356Z,118.70
2019-05-20T22:20:44.794Z,101.37
2019-05-20T22:23:23.597Z,142.63
2019-05-20T22:25:52.679Z,115.97
2019-05-20T22:28:21.351Z,132.77
2019-05-20T22:30:49.765Z,150.87
2019-05-20T22:33:18.217Z,118.27
2019-05-20T22:35:46.652Z,133.67
2019-05-20T22:38:15.084Z,111.90
2019-05-20T22:40:43.885Z,117.33
2019-05-20T22:43:12.349Z,112.90
2019-05-20T22:45:40.777Z,136.83
2019-05-20T22:48:09.190Z,108.93
2019-05-20T22:50:37.651Z,117.53
2019-05-20T22:53:06.066Z,104.33
2019-05-20T22:55:34.504Z,107.93
2019-05-20T22:58:02.942Z,116.73
2019-05-20T23:00:31.341Z,94.87
2019-05-20T23:05:35.021Z,122.67
2019-05-20T23:08:03.444Z,132.97
2019-05-20T23:10:31.918Z,100.50
2019-05-20T23:13:00.330Z,117.33
2019-05-20T23:15:28.759Z,96.83
2019-05-20T23:17:57.203Z,108.03
2019-05-20T23:20:25.632Z,132.70
2019-05-20T23:22:54.054Z,120.27
2019-05-20T23:25:22.472Z,125.97
2019-05-20T23:27:50.982Z,115.97
2019-05-20T23:30:19.543Z,127.20
2019-05-20T23:32:47.988Z,150.20
2019-05-20T23:35:16.413Z,183.33
2019-05-20T23:37:44.870Z,159.33
2019-05-20T23:40:13.420Z,142.37
2019-05-20T23:42:41.864Z,165.83
2019-05-20T23:45:11.129Z,179.47
2019-05-20T23:47:39.584Z,147.53
2019-05-20T23:50:08.154Z,140.30
2019-05-20T23:52:36.573Z,177.70
2019-05-20T23:55:07.661Z,131.30
2019-05-20T23:57:36.111Z,156.10
